Time;durP1;ratioP1;P1;durP2;ratioP2;P2;SDS_P1;SDS_P2;PMS_P1;PMS_P2;Temp;Humidity;BMP_temperature;BMP_pressure;BME280_temperature;BME280_humidity;BME280_pressure;Samples;Min_cycle;Max_cycle;Signal;HPM_P1;HPM_P2
2021/10/30 00:01:33;;;;;;;0.50;0.50;;;;;;;-4.31;62.32;98687.75;5033278;28;20044;-63
2021/10/30 00:03:59;;;;;;;0.47;0.43;;;;;;;-4.32;62.51;98680.69;5052138;28;20103;-62
2021/10/30 00:06:24;;;;;;;0.30;0.30;;;;;;;-4.30;62.43;98673.38;5052226;28;20045;-63
2021/10/30 00:08:52;;;;;;;0.30;0.30;;;;;;;-4.26;62.22;98663.19;5052218;28;20045;-64
2021/10/30 00:11:17;;;;;;;0.30;0.30;;;;;;;-4.25;62.28;98668.41;5052256;28;20450;-64
2021/10/30 00:13:44;;;;;;;0.47;0.47;;;;;;;-4.27;62.27;98665.03;5052156;28;20043;-63
2021/10/30 00:16:09;;;;;;;0.30;0.30;;;;;;;-4.29;62.32;98658.94;5052890;28;20083;-63
2021/10/30 00:18:35;;;;;;;0.30;0.30;;;;;;;-4.30;62.50;98649.25;5053547;28;20052;-61
2021/10/30 00:21:01;;;;;;;1.30;0.80;;;;;;;-4.30;62.35;98651.06;5002422;28;20091;-62
2021/10/30 00:23:27;;;;;;;0.20;0.20;;;;;;;-4.28;62.32;98652.59;5052408;28;20044;-62
2021/10/30 00:25:52;;;;;;;0.20;0.20;;;;;;;-4.29;62.46;98655.44;5051781;28;20040;-62
2021/10/30 00:28:18;;;;;;;0.30;0.30;;;;;;;-4.30;62.36;98634.97;5051839;28;20045;-62
2021/10/30 00:30:44;;;;;;;0.30;0.30;;;;;;;-4.31;62.38;98636.81;5051079;28;20466;-62
2021/10/30 00:33:10;;;;;;;0.20;0.20;;;;;;;-4.29;62.45;98632.13;5051766;28;20063;-61
2021/10/30 00:35:36;;;;;;;2.05;0.50;;;;;;;-4.26;62.51;98634.53;5051464;28;20555;-62
2021/10/30 00:38:01;;;;;;;0.55;0.30;;;;;;;-4.24;62.50;98629.03;5051881;28;20047;-62
2021/10/30 00:40:27;;;;;;;0.30;0.30;;;;;;;-4.23;62.39;98620.81;5051750;28;20487;-62
2021/10/30 00:42:53;;;;;;;0.30;0.30;;;;;;;-4.18;62.42;98617.75;5051324;28;20037;-64
2021/10/30 00:45:19;;;;;;;1.55;0.40;;;;;;;-4.16;62.34;98607.69;5051478;28;20041;-62
2021/10/30 00:47:45;;;;;;;0.30;0.30;;;;;;;-4.15;62.47;98606.72;5051871;28;20033;-63
2021/10/30 00:50:11;;;;;;;0.50;0.50;;;;;;;-4.14;62.32;98607.56;5051626;28;20037;-62
2021/10/30 00:52:39;;;;;;;0.40;0.40;;;;;;;-4.10;62.34;98603.59;5051461;28;20045;-61
2021/10/30 00:55:09;;;;;;;1.95;0.30;;;;;;;-4.11;62.49;98593.84;5051296;28;20088;-61
2021/10/30 00:57:39;;;;;;;0.60;0.60;;;;;;;-4.12;62.41;98584.97;5051618;28;20064;-63
2021/10/30 01:00:05;;;;;;;0.40;0.40;;;;;;;-4.10;62.47;98591.03;5051000;28;20118;-62
2021/10/30 01:02:31;;;;;;;0.30;0.30;;;;;;;-4.10;62.51;98601.75;5051368;28;20127;-63
2021/10/30 01:04:57;;;;;;;0.57;0.57;;;;;;;-4.07;62.55;98603.28;5051684;28;20124;-62
2021/10/30 01:07:22;;;;;;;0.50;0.50;;;;;;;-4.09;62.48;98597.25;5051438;28;20562;-63
2021/10/30 01:09:52;;;;;;;0.43;0.43;;;;;;;-4.10;62.70;98584.81;5051425;28;20492;-63
2021/10/30 01:12:18;;;;;;;0.50;0.50;;;;;;;-4.11;62.61;98586.66;5051493;28;20353;-63
2021/10/30 01:14:44;;;;;;;0.30;0.30;;;;;;;-4.12;62.87;98576.94;5054902;28;20049;-61
2021/10/30 01:17:10;;;;;;;0.40;0.40;;;;;;;-4.11;62.87;98583.13;5055046;28;20107;-62
2021/10/30 01:19:36;;;;;;;0.35;0.35;;;;;;;-4.12;63.00;98571.56;5055171;28;20049;-63
2021/10/30 01:22:02;;;;;;;0.40;0.40;;;;;;;-4.16;63.04;98563.97;5054671;28;20072;-64
2021/10/30 01:24:28;;;;;;;4.65;1.50;;;;;;;-4.23;63.32;98558.34;5055000;28;20083;-64
2021/10/30 01:26:55;;;;;;;0.85;0.50;;;;;;;-4.26;63.39;98550.59;5054709;28;20041;-64
2021/10/30 01:29:21;;;;;;;0.52;0.52;;;;;;;-4.30;63.66;98531.28;5054664;28;20407;-64
2021/10/30 01:31:50;;;;;;;0.30;0.30;;;;;;;-4.33;63.19;98534.22;5054275;28;20132;-64
2021/10/30 01:34:16;;;;;;;0.63;0.50;;;;;;;-4.33;63.68;98536.06;5054741;28;20140;-63
2021/10/30 01:36:42;;;;;;;0.35;0.35;;;;;;;-4.31;63.68;98534.94;5054696;28;20045;-65
2021/10/30 01:39:09;;;;;;;0.32;0.32;;;;;;;-4.24;63.67;98519.97;5054344;28;20068;-64
2021/10/30 01:41:36;;;;;;;0.40;0.40;;;;;;;-4.25;63.71;98520.94;5054391;28;20458;-64
2021/10/30 01:44:04;;;;;;;0.40;0.40;;;;;;;-4.25;63.85;98510.22;5054328;28;20056;-65
2021/10/30 01:46:30;;;;;;;0.32;0.32;;;;;;;-4.24;64.08;98494.97;5054330;28;20048;-62
2021/10/30 01:48:55;;;;;;;0.30;0.30;;;;;;;-4.20;63.90;98496.38;5054414;28;20075;-62
2021/10/30 01:51:22;;;;;;;0.47;0.47;;;;;;;-4.18;63.90;98494.41;5036336;28;20171;-63
2021/10/30 01:53:48;;;;;;;0.40;0.40;;;;;;;-4.13;64.00;98491.28;5053873;28;20041;-63
2021/10/30 01:56:16;;;;;;;0.30;0.30;;;;;;;-4.15;64.06;98477.16;5054032;28;20053;-63
2021/10/30 01:58:42;;;;;;;0.30;0.30;;;;;;;-4.17;63.94;98479.16;5054341;28;20056;-63
2021/10/30 02:01:08;;;;;;;2.75;0.40;;;;;;;-4.20;64.21;98466.03;5053454;28;20044;-63
2021/10/30 02:03:35;;;;;;;0.40;0.40;;;;;;;-4.18;64.43;98466.72;5053710;28;20041;-64
2021/10/30 02:06:03;;;;;;;0.52;0.40;;;;;;;-4.17;64.37;98446.97;5054016;28;20450;-63
2021/10/30 02:08:29;;;;;;;0.50;0.50;;;;;;;-4.15;64.43;98456.56;5054619;28;20084;-63
2021/10/30 02:10:56;;;;;;;0.30;0.30;;;;;;;-4.20;64.52;98452.66;5053723;28;20048;-62
2021/10/30 02:13:22;;;;;;;0.40;0.40;;;;;;;-4.23;64.80;98446.56;5053678;28;20041;-63
2021/10/30 02:15:49;;;;;;;0.50;0.35;;;;;;;-4.27;64.80;98439.84;5053595;28;20558;-63
2021/10/30 02:18:15;;;;;;;0.38;0.38;;;;;;;-4.30;65.06;98429.41;5053213;28;20055;-63
2021/10/30 02:20:41;;;;;;;0.35;0.35;;;;;;;-4.30;65.06;98425.88;5035640;28;20037;-63
2021/10/30 02:23:08;;;;;;;0.30;0.30;;;;;;;-4.31;65.02;98421.53;5035679;28;20033;-63
2021/10/30 02:25:34;;;;;;;0.30;0.30;;;;;;;-4.32;65.29;98426.03;5053627;28;20045;-63
2021/10/30 02:27:59;;;;;;;0.40;0.40;;;;;;;-4.30;65.13;98416.03;5053359;28;20385;-63
2021/10/30 02:30:25;;;;;;;0.45;0.32;;;;;;;-4.28;65.19;98402.47;5052930;28;20586;-62
2021/10/30 02:32:52;;;;;;;0.30;0.30;;;;;;;-4.31;65.34;98394.72;5053645;28;20041;-62
2021/10/30 02:35:17;;;;;;;0.20;0.20;;;;;;;-4.32;65.38;98385.81;5053405;28;20037;-62
2021/10/30 02:37:43;;;;;;;0.20;0.20;;;;;;;-4.34;65.50;98374.41;5053404;28;20380;-63
2021/10/30 02:40:10;;;;;;;1.65;0.40;;;;;;;-4.33;65.48;98367.22;5053406;28;20040;-64
2021/10/30 02:42:36;;;;;;;0.88;0.35;;;;;;;-4.35;65.57;98366.53;5053318;28;20036;-63
2021/10/30 02:45:04;;;;;;;0.40;0.40;;;;;;;-4.34;65.58;98369.06;5052941;28;20045;-64
2021/10/30 02:47:30;;;;;;;0.30;0.30;;;;;;;-4.31;65.49;98370.59;5053390;28;20067;-63
2021/10/30 02:49:56;;;;;;;0.20;0.20;;;;;;;-4.31;65.56;98379.47;5046995;28;20465;-62
2021/10/30 02:52:22;;;;;;;0.30;0.30;;;;;;;-4.29;65.63;98368.59;5039840;28;20075;-63
2021/10/30 02:54:48;;;;;;;0.20;0.20;;;;;;;-4.27;65.63;98343.34;5044349;28;20060;-62
2021/10/30 02:57:14;;;;;;;0.20;0.20;;;;;;;-4.29;65.73;98331.91;5052798;28;20044;-62
2021/10/30 02:59:39;;;;;;;0.38;0.38;;;;;;;-4.29;65.77;98344.47;5052150;28;20049;-64
2021/10/30 03:02:05;;;;;;;0.20;0.20;;;;;;;-4.29;65.77;98329.22;5052380;28;20045;-65
2021/10/30 03:04:32;;;;;;;0.20;0.20;;;;;;;-4.26;65.93;98336.13;5058002;28;20071;-66
2021/10/30 03:06:58;;;;;;;0.28;0.28;;;;;;;-4.26;65.90;98331.59;5063194;28;20043;-64
2021/10/30 03:09:23;;;;;;;0.20;0.20;;;;;;;-4.21;65.76;98317.75;5061898;28;20045;-64
2021/10/30 03:11:49;;;;;;;0.32;0.32;;;;;;;-4.22;65.65;98319.59;5062196;28;20047;-64
2021/10/30 03:14:15;;;;;;;0.32;0.32;;;;;;;-4.22;65.96;98311.53;5063348;28;20044;-64
2021/10/30 03:16:41;;;;;;;0.40;0.40;;;;;;;-4.26;65.98;98307.47;5069644;28;20055;-63
2021/10/30 03:19:07;;;;;;;0.73;0.73;;;;;;;-4.30;66.09;98299.91;5073893;28;20114;-64
2021/10/30 03:21:33;;;;;;;0.30;0.30;;;;;;;-4.31;65.96;98293.69;5072633;28;20465;-62
2021/10/30 03:23:59;;;;;;;0.20;0.20;;;;;;;-4.32;66.12;98289.31;5072411;28;20052;-62
2021/10/30 03:26:24;;;;;;;0.30;0.30;;;;;;;-4.30;66.27;98275.78;5054743;28;20040;-62
2021/10/30 03:28:50;;;;;;;0.30;0.30;;;;;;;-4.28;66.25;98279.16;5072415;28;20048;-63
2021/10/30 03:31:16;;;;;;;0.30;0.30;;;;;;;-4.31;66.37;98268.75;5071308;28;20040;-64
2021/10/30 03:33:42;;;;;;;0.68;0.68;;;;;;;-4.31;66.39;98269.56;5071323;28;20056;-63
2021/10/30 03:36:08;;;;;;;0.30;0.30;;;;;;;-4.28;66.22;98273.78;5071999;28;20040;-63
2021/10/30 03:38:34;;;;;;;0.28;0.28;;;;;;;-4.26;66.37;98269.13;5072372;28;20040;-62
2021/10/30 03:41:00;;;;;;;0.60;0.32;;;;;;;-4.22;66.26;98263.28;5072201;28;20048;-63
2021/10/30 03:43:25;;;;;;;0.20;0.20;;;;;;;-4.18;66.15;98262.97;5072478;28;20049;-63
2021/10/30 03:45:51;;;;;;;0.30;0.30;;;;;;;-4.14;66.05;98261.66;5072221;28;20553;-64
2021/10/30 03:48:18;;;;;;;0.30;0.30;;;;;;;-4.13;66.17;98249.97;5071766;28;20051;-63
2021/10/30 03:50:45;;;;;;;0.30;0.30;;;;;;;-4.12;66.02;98240.91;5071467;28;20043;-62
2021/10/30 03:53:11;;;;;;;0.28;0.28;;;;;;;-4.08;66.08;98232.41;5072007;28;20036;-62
2021/10/30 03:55:36;;;;;;;0.38;0.38;;;;;;;-4.02;65.92;98228.25;5054413;28;20052;-64
2021/10/30 03:58:04;;;;;;;0.30;0.30;;;;;;;-3.96;65.79;98208.88;5052091;28;20075;-65
2021/10/30 04:00:29;;;;;;;6.65;0.82;;;;;;;-3.91;65.78;98201.16;5048358;28;20041;-63
2021/10/30 04:02:55;;;;;;;0.50;0.30;;;;;;;-3.88;65.72;98200.84;5038921;28;20047;-63
2021/10/30 04:05:22;;;;;;;0.20;0.20;;;;;;;-3.84;65.88;98189.81;5039417;28;20036;-62
2021/10/30 04:07:48;;;;;;;0.88;0.40;;;;;;;-3.79;65.79;98174.09;5041698;28;20396;-63
2021/10/30 04:10:14;;;;;;;0.20;0.20;;;;;;;-3.78;65.68;98167.72;5039881;28;20124;-63
2021/10/30 04:12:40;;;;;;;0.50;0.50;;;;;;;-3.75;65.79;98167.41;5043054;28;20160;-62
2021/10/30 04:15:07;;;;;;;0.70;0.70;;;;;;;-3.74;65.82;98167.25;5033196;28;20045;-63
2021/10/30 04:17:33;;;;;;;1.05;0.95;;;;;;;-3.72;65.88;98161.72;5040351;28;20044;-63
2021/10/30 04:19:58;;;;;;;1.27;1.17;;;;;;;-3.72;65.88;98161.72;5036730;28;20052;-64
2021/10/30 04:22:26;;;;;;;0.70;0.70;;;;;;;-3.72;66.01;98146.47;5033146;28;20389;-65
2021/10/30 04:24:53;;;;;;;1.23;0.70;;;;;;;-3.69;65.89;98153.34;5012368;28;20049;-66
2021/10/30 04:27:19;;;;;;;0.70;0.70;;;;;;;-3.59;65.92;98146.03;5012078;28;20041;-65
2021/10/30 04:29:45;;;;;;;0.43;0.43;;;;;;;-3.52;65.74;98141.69;5029836;28;20044;-63
2021/10/30 04:32:12;;;;;;;0.50;0.50;;;;;;;-3.48;65.69;98136.00;5029370;28;20037;-64
2021/10/30 04:34:42;;;;;;;0.50;0.50;;;;;;;-3.45;65.79;98130.31;5030052;28;20026;-64
2021/10/30 04:37:18;;;;;;;1.35;0.60;;;;;;;-3.45;65.73;98130.31;5029980;28;20038;-66
2021/10/30 04:39:51;;;;;;;1.38;0.95;;;;;;;-3.43;65.96;98101.44;5030074;28;20041;-64
2021/10/30 04:42:18;;;;;;;0.55;0.55;;;;;;;-3.40;65.91;98110.03;5040695;28;20037;-70
2021/10/30 04:44:44;;;;;;;0.30;0.30;;;;;;;-3.42;66.09;98100.44;5038925;28;20042;-66
2021/10/30 04:47:11;;;;;;;0.52;0.50;;;;;;;-3.44;66.13;98105.16;5023209;28;20037;-65
2021/10/30 04:49:38;;;;;;;0.50;0.50;;;;;;;-3.41;66.21;98099.44;5044685;28;20407;-65
2021/10/30 04:52:06;;;;;;;0.70;0.63;;;;;;;-3.34;66.10;98095.13;5042943;28;20038;-67
2021/10/30 04:54:32;;;;;;;0.30;0.30;;;;;;;-3.24;66.00;98089.59;5048857;28;20044;-72
2021/10/30 04:56:58;;;;;;;1.25;0.73;;;;;;;-3.11;65.79;98095.31;5063184;28;20056;-66
2021/10/30 04:59:25;;;;;;;0.70;0.70;;;;;;;-2.95;65.55;98077.56;5064461;28;20040;-64
2021/10/30 05:01:51;;;;;;;0.20;0.20;;;;;;;-2.85;65.26;98088.97;5062499;28;20076;-65
2021/10/30 05:04:17;;;;;;;2.03;0.60;;;;;;;-2.76;65.18;98071.00;5063374;28;20462;-68
2021/10/30 05:06:42;;;;;;;0.28;0.28;;;;;;;-2.74;65.30;98082.41;5064754;28;20040;-64
2021/10/30 05:09:08;;;;;;;1.25;0.93;;;;;;;-2.66;65.29;98060.94;5059252;28;20063;-67
2021/10/30 05:11:35;;;;;;;1.55;0.50;;;;;;;-2.61;65.39;98066.63;5055313;28;20047;-65
2021/10/30 05:14:02;;;;;;;0.65;0.63;;;;;;;-2.62;65.37;98062.28;5062651;28;20049;-65
2021/10/30 05:16:27;;;;;;;0.30;0.30;;;;;;;-2.62;65.47;98069.47;5062341;28;20403;-64
2021/10/30 05:18:53;;;;;;;0.22;0.22;;;;;;;-2.65;65.60;98060.75;5053151;28;20052;-63
2021/10/30 05:21:19;;;;;;;0.30;0.30;;;;;;;-2.72;65.98;98056.25;5052708;28;20049;-64
2021/10/30 05:23:45;;;;;;;0.38;0.38;;;;;;;-2.80;66.22;98048.16;5053048;28;20056;-66
2021/10/30 05:26:11;;;;;;;0.43;0.43;;;;;;;-2.83;66.31;98043.97;5052614;28;20053;-64
2021/10/30 05:28:37;;;;;;;0.32;0.32;;;;;;;-2.80;66.67;98021.28;5053014;28;20503;-64
2021/10/30 05:31:03;;;;;;;1.27;0.73;;;;;;;-2.75;66.50;98021.63;5052468;28;20040;-66
2021/10/30 05:33:29;;;;;;;1.10;0.55;;;;;;;-2.68;66.35;98014.56;5052882;28;20416;-65
2021/10/30 05:35:55;;;;;;;0.30;0.30;;;;;;;-2.65;66.29;98025.81;5052682;28;20045;-64
2021/10/30 05:38:20;;;;;;;0.40;0.40;;;;;;;-2.59;66.29;98024.31;5052914;28;20068;-64
2021/10/30 05:40:47;;;;;;;0.68;0.68;;;;;;;-2.56;66.31;98007.84;5052823;28;20407;-63
2021/10/30 05:43:14;;;;;;;0.32;0.32;;;;;;;-2.50;66.24;98006.31;5052521;28;20041;-66
2021/10/30 05:45:41;;;;;;;0.20;0.20;;;;;;;-2.52;66.19;97998.44;5052832;28;20127;-64
2021/10/30 05:48:08;;;;;;;0.32;0.30;;;;;;;-2.54;66.41;97988.84;5052676;28;20045;-66
2021/10/30 05:50:34;;;;;;;0.68;0.68;;;;;;;-2.55;66.56;97992.53;5053461;28;20522;-64
2021/10/30 05:53:01;;;;;;;0.63;0.50;;;;;;;-2.57;66.73;97987.34;5052777;28;20041;-66
2021/10/30 05:55:27;;;;;;;0.25;0.25;;;;;;;-2.53;66.76;97986.00;5036230;28;20057;-68
2021/10/30 05:57:53;;;;;;;1.35;0.68;;;;;;;-2.47;66.66;97965.66;5032517;28;20081;-67
2021/10/30 06:00:19;;;;;;;0.22;0.22;;;;;;;-2.45;66.58;97960.09;5031224;28;20041;-63
2021/10/30 06:02:45;;;;;;;0.30;0.30;;;;;;;-2.45;66.59;97965.47;5030210;28;20037;-65
2021/10/30 06:05:11;;;;;;;2.83;0.55;;;;;;;-2.50;66.71;97958.75;5032345;28;20087;-65
2021/10/30 06:07:38;;;;;;;0.38;0.38;;;;;;;-2.43;66.83;97958.06;5032418;28;20089;-65
2021/10/30 06:10:04;;;;;;;0.40;0.40;;;;;;;-2.39;66.66;97944.09;5032206;28;20048;-65
2021/10/30 06:12:30;;;;;;;0.30;0.30;;;;;;;-2.42;66.77;97940.94;5031553;28;20119;-65
2021/10/30 06:14:56;;;;;;;0.38;0.38;;;;;;;-2.44;67.04;97945.63;5032231;28;20107;-65
2021/10/30 06:17:22;;;;;;;0.35;0.35;;;;;;;-2.48;67.13;97929.84;5032066;28;20041;-66
2021/10/30 06:19:48;;;;;;;0.98;0.40;;;;;;;-2.44;67.13;97937.56;5032391;28;20119;-63
2021/10/30 06:22:14;;;;;;;0.20;0.20;;;;;;;-2.28;66.65;97934.84;5029589;28;20059;-65
2021/10/30 06:24:41;;;;;;;0.38;0.38;;;;;;;-1.99;66.21;97944.09;5031640;28;20059;-68
2021/10/30 06:27:07;;;;;;;0.40;0.40;;;;;;;-1.72;65.50;97928.47;5032156;28;20045;-65
2021/10/30 06:29:34;;;;;;;0.20;0.20;;;;;;;-1.52;65.21;97923.47;5031626;28;20046;-64
2021/10/30 06:32:00;;;;;;;0.30;0.30;;;;;;;-1.45;65.09;97906.41;5031792;28;20045;-68
2021/10/30 06:34:25;;;;;;;0.47;0.40;;;;;;;-1.37;65.09;97908.22;5032244;28;20045;-63
2021/10/30 06:36:51;;;;;;;0.45;0.40;;;;;;;-1.24;64.97;97891.41;5031929;28;20453;-66
2021/10/30 06:39:17;;;;;;;0.22;0.22;;;;;;;-1.18;64.89;97889.84;5031455;28;20393;-64
2021/10/30 06:41:43;;;;;;;0.30;0.30;;;;;;;-1.21;64.95;97888.34;5031468;28;20045;-63
2021/10/30 06:44:10;;;;;;;0.38;0.38;;;;;;;-1.25;65.32;97884.38;5013858;28;20053;-62
2021/10/30 06:46:40;;;;;;;0.30;0.30;;;;;;;-1.32;65.53;97878.03;5031352;28;20125;-63
2021/10/30 06:49:10;;;;;;;0.63;0.63;;;;;;;-1.35;65.79;97878.41;5031358;28;20476;-64
2021/10/30 06:51:38;;;;;;;0.30;0.30;;;;;;;-1.38;65.99;97871.53;5031063;28;20095;-63
2021/10/30 06:54:04;;;;;;;0.20;0.20;;;;;;;-1.46;66.07;97858.97;5035623;28;20543;-62
2021/10/30 06:56:30;;;;;;;1.20;0.90;;;;;;;-1.52;66.29;97864.22;5051554;28;20083;-64
2021/10/30 06:58:55;;;;;;;0.55;0.52;;;;;;;-1.57;66.46;97870.16;5051267;28;20060;-64
2021/10/30 07:01:21;;;;;;;0.57;0.57;;;;;;;-1.55;66.39;97862.72;5050765;28;20512;-66
2021/10/30 07:03:47;;;;;;;0.32;0.32;;;;;;;-1.51;66.36;97858.66;5051124;28;20041;-66
2021/10/30 07:06:13;;;;;;;0.30;0.30;;;;;;;-1.47;66.29;97851.91;5051890;28;20499;-64
2021/10/30 07:08:40;;;;;;;0.38;0.38;;;;;;;-1.44;66.19;97835.38;5048603;28;20423;-65
2021/10/30 07:11:06;;;;;;;0.30;0.30;;;;;;;-1.46;66.41;97837.44;5049730;28;20033;-65
2021/10/30 07:13:32;;;;;;;0.40;0.40;;;;;;;-1.43;66.20;97836.22;5050841;28;20079;-66
2021/10/30 07:15:58;;;;;;;0.52;0.52;;;;;;;-1.45;66.41;97814.84;5050389;28;20076;-66
2021/10/30 07:18:24;;;;;;;0.20;0.20;;;;;;;-1.46;66.39;97815.88;5050563;28;20546;-66
2021/10/30 07:20:49;;;;;;;0.40;0.40;;;;;;;-1.43;66.29;97803.91;5049046;28;20186;-65
2021/10/30 07:23:18;;;;;;;0.68;0.30;;;;;;;-1.35;66.14;97794.91;5049339;28;20037;-64
2021/10/30 07:25:44;;;;;;;0.43;0.40;;;;;;;-1.29;66.07;97796.88;5049705;28;20055;-62
2021/10/30 07:28:12;;;;;;;0.20;0.20;;;;;;;-1.27;65.89;97787.56;5049718;28;20049;-64
2021/10/30 07:30:37;;;;;;;0.73;0.30;;;;;;;-1.30;66.04;97781.72;5049338;28;20073;-64
2021/10/30 07:33:03;;;;;;;0.20;0.20;;;;;;;-1.33;66.20;97785.63;5048907;28;20464;-64
2021/10/30 07:35:30;;;;;;;0.47;0.45;;;;;;;-1.34;66.17;97775.03;5049305;28;20148;-64
2021/10/30 07:38:00;;;;;;;0.30;0.30;;;;;;;-1.31;66.25;97782.75;5048452;28;20530;-64
2021/10/30 07:40:30;;;;;;;0.40;0.40;;;;;;;-1.19;66.34;97767.81;5049850;28;20399;-65
2021/10/30 07:42:58;;;;;;;0.28;0.28;;;;;;;-0.99;65.63;97773.44;5048856;28;20471;-66
2021/10/30 07:45:25;;;;;;;0.20;0.20;;;;;;;-0.81;65.13;97767.69;5049843;28;20040;-65
2021/10/30 07:47:54;;;;;;;0.40;0.40;;;;;;;-0.81;65.28;97766.84;5048769;28;20036;-64
2021/10/30 07:50:20;;;;;;;0.30;0.30;;;;;;;-0.80;65.40;97763.97;5048901;28;20040;-64
2021/10/30 07:52:46;;;;;;;0.20;0.20;;;;;;;-0.78;65.47;97745.75;5048425;28;20029;-63
2021/10/30 07:55:12;;;;;;;0.20;0.20;;;;;;;-0.81;65.75;97738.06;5049097;28;20442;-66
2021/10/30 07:57:37;;;;;;;0.20;0.20;;;;;;;-0.82;65.74;97730.97;5048819;28;20035;-65
2021/10/30 08:00:06;;;;;;;0.65;0.50;;;;;;;-0.84;65.96;97738.44;5048711;28;20505;-64
2021/10/30 08:02:32;;;;;;;0.22;0.22;;;;;;;-0.90;66.03;97723.00;5060483;28;20029;-63
2021/10/30 08:05:02;;;;;;;1.65;0.40;;;;;;;-0.95;66.03;97714.66;5048856;28;20076;-64
2021/10/30 08:07:27;;;;;;;0.40;0.40;;;;;;;-0.95;66.32;97717.34;5048668;28;20042;-63
2021/10/30 08:09:53;;;;;;;0.45;0.45;;;;;;;-0.93;66.14;97717.97;5045486;28;20041;-63
2021/10/30 08:12:19;;;;;;;0.20;0.20;;;;;;;-0.89;66.25;97703.94;5048660;28;20495;-64
2021/10/30 08:14:45;;;;;;;0.20;0.20;;;;;;;-0.84;66.07;97713.31;5049230;28;20056;-63
2021/10/30 08:17:10;;;;;;;0.32;0.32;;;;;;;-0.79;66.01;97708.22;5048565;28;20177;-66
2021/10/30 08:19:36;;;;;;;0.20;0.20;;;;;;;-0.72;65.88;97709.97;5049310;28;20033;-65
2021/10/30 08:22:03;;;;;;;0.20;0.20;;;;;;;-0.69;66.04;97703.34;5050441;28;20183;-65
2021/10/30 08:24:29;;;;;;;0.32;0.32;;;;;;;-0.62;65.78;97698.03;5048745;28;20084;-63
2021/10/30 08:26:54;;;;;;;0.20;0.20;;;;;;;-0.57;65.81;97687.50;5053726;28;20124;-64
2021/10/30 08:29:20;;;;;;;0.30;0.30;;;;;;;-0.54;65.85;97701.44;5052867;28;20488;-64
2021/10/30 08:31:48;;;;;;;0.20;0.20;;;;;;;-0.47;65.58;97700.66;5052343;28;20095;-66
2021/10/30 08:34:14;;;;;;;0.20;0.20;;;;;;;-0.28;65.37;97700.03;5022939;28;20043;-64
2021/10/30 08:36:41;;;;;;;0.20;0.20;;;;;;;-0.13;64.78;97696.41;5052925;28;20048;-65
2021/10/30 08:39:07;;;;;;;0.20;0.20;;;;;;;-0.08;65.02;97680.50;5051712;28;20036;-63
2021/10/30 08:41:32;;;;;;;0.30;0.30;;;;;;;-0.14;65.17;97694.78;5052265;28;20044;-65
2021/10/30 08:44:01;;;;;;;0.20;0.20;;;;;;;-0.24;65.48;97685.13;5053044;28;20632;-64
2021/10/30 08:46:29;;;;;;;0.20;0.20;;;;;;;-0.37;66.02;97683.16;5047008;28;20133;-63
2021/10/30 08:48:55;;;;;;;0.32;0.32;;;;;;;-0.39;66.17;97673.56;5049531;28;20430;-64
2021/10/30 08:51:21;;;;;;;0.30;0.30;;;;;;;-0.37;66.32;97668.81;5052531;28;20032;-63
2021/10/30 08:53:47;;;;;;;0.20;0.20;;;;;;;-0.34;66.21;97659.50;5051198;28;20045;-65
2021/10/30 08:56:13;;;;;;;0.20;0.20;;;;;;;-0.36;66.12;97663.22;5039198;28;20436;-64
2021/10/30 08:58:39;;;;;;;0.20;0.20;;;;;;;-0.36;66.20;97665.09;5043175;28;20040;-63
2021/10/30 09:01:10;;;;;;;0.20;0.20;;;;;;;-0.36;66.31;97655.13;5040088;28;20041;-61
2021/10/30 09:03:37;;;;;;;0.20;0.20;;;;;;;-0.36;66.24;97655.13;5041661;28;20447;-63
2021/10/30 09:06:04;;;;;;;0.25;0.25;;;;;;;-0.34;66.25;97646.84;5043205;28;20491;-64
2021/10/30 09:08:30;;;;;;;0.73;0.55;;;;;;;-0.34;66.42;97644.16;5043325;28;20080;-63
2021/10/30 09:11:06;;;;;;;0.20;0.20;;;;;;;-0.20;66.24;97658.59;5018825;28;20043;-64
2021/10/30 09:13:32;;;;;;;0.20;0.20;;;;;;;0.01;65.83;97651.50;5036641;28;20052;-64
2021/10/30 09:15:59;;;;;;;0.20;0.20;;;;;;;0.19;65.35;97646.44;5032473;28;20037;-65
2021/10/30 09:18:41;;;;;;;0.20;0.20;;;;;;;0.25;65.00;97648.38;5044137;28;20041;-63
2021/10/30 09:21:18;;;;;;;0.20;0.20;;;;;;;0.28;65.19;97634.47;5037281;28;20037;-65
2021/10/30 09:23:54;;;;;;;0.88;0.35;;;;;;;0.28;65.45;97639.00;5038029;28;20124;-64
2021/10/30 09:26:25;;;;;;;0.35;0.30;;;;;;;0.22;65.57;97634.41;5036776;28;20056;-64
2021/10/30 09:28:57;;;;;;;0.22;0.22;;;;;;;0.23;65.74;97647.72;5039386;28;20037;-65
2021/10/30 09:31:27;;;;;;;0.28;0.28;;;;;;;0.21;65.81;97647.09;5037189;28;20384;-61
2021/10/30 09:34:00;;;;;;;0.30;0.30;;;;;;;0.19;65.97;97657.22;5032875;28;20489;-64
2021/10/30 09:36:38;;;;;;;0.20;0.20;;;;;;;0.20;66.25;97652.69;5036545;28;20037;-62
2021/10/30 09:39:11;;;;;;;0.20;0.20;;;;;;;0.16;66.15;97666.56;5017870;28;20063;-64
2021/10/30 09:41:42;;;;;;;0.65;0.38;;;;;;;0.19;66.10;97646.44;5040945;28;20037;-61
2021/10/30 09:44:12;;;;;;;0.30;0.30;;;;;;;0.20;66.23;97631.09;5020554;28;20563;-64
2021/10/30 09:46:44;;;;;;;0.20;0.20;;;;;;;0.17;66.62;97633.13;5040364;28;20033;-62
2021/10/30 09:49:15;;;;;;;0.20;0.20;;;;;;;0.18;66.48;97636.69;5043006;28;20033;-63
2021/10/30 09:51:42;;;;;;;0.20;0.20;;;;;;;0.16;66.75;97626.09;5031791;28;20530;-61
2021/10/30 09:54:08;;;;;;;0.20;0.20;;;;;;;0.09;66.81;97618.94;5034211;28;20046;-62
2021/10/30 09:56:49;;;;;;;0.20;0.20;;;;;;;0.05;67.04;97625.81;5032602;28;20423;-63
2021/10/30 09:59:21;;;;;;;0.30;0.30;;;;;;;0.09;67.13;97614.41;5032156;28;20050;-62
2021/10/30 10:01:49;;;;;;;0.28;0.28;;;;;;;0.13;67.29;97599.50;5031719;28;20057;-62
2021/10/30 10:04:18;;;;;;;0.20;0.20;;;;;;;0.16;67.42;97560.44;5031483;28;20408;-65
2021/10/30 10:06:48;;;;;;;0.20;0.20;;;;;;;0.11;67.48;97579.94;5030687;28;20033;-60
2021/10/30 10:09:16;;;;;;;0.30;0.30;;;;;;;0.11;67.64;97603.41;5027679;28;20084;-62
2021/10/30 10:11:46;;;;;;;0.38;0.38;;;;;;;0.08;67.94;97606.50;5033676;28;20409;-61
2021/10/30 10:14:18;;;;;;;0.30;0.30;;;;;;;0.08;67.99;97596.53;5031185;28;20088;-71
2021/10/30 10:16:54;;;;;;;0.20;0.20;;;;;;;0.12;68.14;97591.59;5028789;28;20071;-75
2021/10/30 10:19:21;;;;;;;0.20;0.20;;;;;;;0.13;68.11;97587.84;5030698;28;20042;-73
2021/10/30 10:21:53;;;;;;;0.25;0.25;;;;;;;0.16;68.16;97588.28;5032601;28;20514;-70
2021/10/30 10:24:30;;;;;;;0.30;0.30;;;;;;;0.19;68.29;97586.22;5031585;28;20064;-67
2021/10/30 10:26:57;;;;;;;0.28;0.28;;;;;;;0.20;68.35;97580.63;5030178;28;20516;-68
2021/10/30 10:29:42;;;;;;;0.82;0.82;;;;;;;0.23;68.34;97579.41;5031781;28;20046;-73
2021/10/30 10:32:19;;;;;;;0.20;0.20;;;;;;;0.25;68.43;97553.03;5028696;28;20085;-72
2021/10/30 10:34:46;;;;;;;0.20;0.20;;;;;;;0.25;68.41;97575.47;5034719;28;20040;-74
2021/10/30 10:37:11;;;;;;;0.20;0.20;;;;;;;0.24;68.66;97581.06;5033599;28;20037;-73
2021/10/30 10:39:45;;;;;;;0.30;0.30;;;;;;;0.25;68.61;97590.81;5019951;28;20438;-72
2021/10/30 10:42:16;;;;;;;0.20;0.20;;;;;;;0.23;69.01;97598.28;5011564;28;20143;-67
2021/10/30 10:44:42;;;;;;;0.20;0.20;;;;;;;0.22;68.90;97612.81;5030421;28;20037;-68
2021/10/30 10:47:40;;;;;;;0.20;0.20;;;;;;;0.25;69.03;97597.06;5030028;28;20088;-67
2021/10/30 10:50:19;;;;;;;0.30;0.30;;;;;;;0.21;69.32;97603.03;5024749;28;20111;-71
2021/10/30 10:53:14;;;;;;;0.25;0.25;;;;;;;0.16;69.35;97592.84;5037178;28;20084;-68
2021/10/30 10:55:46;;;;;;;0.28;0.28;;;;;;;0.14;69.36;97584.13;5054541;28;20057;-69
2021/10/30 10:58:14;;;;;;;0.65;0.65;;;;;;;0.14;69.38;97576.03;5059072;28;20041;-72
2021/10/30 11:01:00;;;;;;;0.20;0.20;;;;;;;0.17;69.56;97575.63;5051050;28;20514;-68
2021/10/30 11:03:27;;;;;;;0.63;0.40;;;;;;;0.15;69.79;97575.00;5051207;28;20518;-69
2021/10/30 11:05:57;;;;;;;0.45;0.40;;;;;;;0.11;69.53;97587.22;5061779;28;20045;-71
2021/10/30 11:08:34;;;;;;;0.30;0.30;;;;;;;0.05;69.69;97578.03;5052917;28;20419;-68
2021/10/30 11:11:13;;;;;;;0.25;0.25;;;;;;;0.07;69.75;97583.25;5055210;28;20094;-74
2021/10/30 11:14:06;;;;;;;0.20;0.20;;;;;;;0.08;69.60;97582.22;5058503;28;20051;-73
2021/10/30 11:16:39;;;;;;;0.30;0.30;;;;;;;0.09;69.63;97590.13;5037217;28;20641;-73
2021/10/30 11:19:26;;;;;;;0.30;0.30;;;;;;;0.11;69.53;97582.66;5059500;28;20043;-69
2021/10/30 11:21:58;;;;;;;0.30;0.30;;;;;;;0.10;69.54;97582.84;5056557;28;20473;-70
2021/10/30 11:24:27;;;;;;;0.30;0.30;;;;;;;0.11;69.52;97566.44;5061527;28;20043;-73
2021/10/30 11:26:56;;;;;;;0.20;0.20;;;;;;;0.15;69.39;97583.09;5056408;28;20395;-70
2021/10/30 11:29:22;;;;;;;0.20;0.20;;;;;;;0.20;69.26;97586.03;5070996;28;20032;-72
2021/10/30 11:31:58;;;;;;;0.65;0.65;;;;;;;0.22;69.45;97581.28;5071758;28;20464;-73
2021/10/30 11:34:25;;;;;;;0.20;0.20;;;;;;;0.23;69.43;97577.53;5056225;28;20086;-71
2021/10/30 11:40:50;;;;;;;0.22;0.22;;;;;;;0.19;69.58;97553.81;5052989;28;20091;-68